Time;durP1;ratioP1;P1;durP2;ratioP2;P2;SDS_P1;SDS_P2;PMS_P1;PMS_P2;Temp;Humidity;BMP_temperature;BMP_pressure;BME280_temperature;BME280_humidity;BME280_pressure;Samples;Min_cycle;Max_cycle;Signal;HPM_P1;HPM_P2
2021/09/12 00:00:30;;;;;;;;;;;;;;;19.28;59.35;101239.20;1677563;85;20591;-74
2021/09/12 00:03:02;;;;;;;;;;;;;;;19.29;59.58;101235.79;1677624;85;20187;-73
2021/09/12 00:05:35;;;;;;;;;;;;;;;19.28;59.75;101229.34;1677736;85;20198;-77
2021/09/12 00:08:06;;;;;;;;;;;;;;;19.29;59.43;101227.34;1677506;85;20266;-74
2021/09/12 00:10:38;;;;;;;;;;;;;;;19.31;59.88;101237.72;1677491;85;20199;-74
2021/09/12 00:13:09;;;;;;;;;;;;;;;19.30;59.95;101231.27;1677499;85;20290;-76
2021/09/12 00:15:42;;;;;;;;;;;;;;;19.31;60.25;101227.86;1677388;85;20231;-76
2021/09/12 00:18:13;;;;;;;;;;;;;;;19.29;60.40;101232.41;1677470;85;20290;-75
2021/09/12 00:20:46;;;;;;;;;;;;;;;19.28;60.56;101229.34;1677385;85;20556;-76
2021/09/12 00:23:17;;;;;;;;;;;;;;;19.27;60.71;101225.41;1677468;85;20326;-76
2021/09/12 00:25:48;;;;;;;;;;;;;;;19.25;60.67;101224.86;1677428;85;20619;-77
2021/09/12 00:28:21;;;;;;;;;;;;;;;19.25;60.75;101230.48;1677335;85;20191;-76
2021/09/12 00:30:53;;;;;;;;;;;;;;;19.23;60.81;101225.19;1677437;85;20588;-77
2021/09/12 00:33:30;;;;;;;;;;;;;;;19.23;60.72;101225.74;1677560;85;20223;-76
2021/09/12 00:36:01;;;;;;;;;;;;;;;19.24;60.49;101228.27;1677028;85;20555;-80
2021/09/12 00:38:32;;;;;;;;;;;;;;;19.27;60.39;101235.27;1647748;86;20249;-79
2021/09/12 00:41:04;;;;;;;;;;;;;;;19.28;60.26;101232.16;1647421;87;20305;-79
2021/09/12 00:43:36;;;;;;;;;;;;;;;19.30;60.22;101229.01;1647436;86;20245;-78
2021/09/12 00:46:08;;;;;;;;;;;;;;;19.31;60.13;101232.09;1643371;87;20221;-73
2021/09/12 00:48:40;;;;;;;;;;;;;;;19.31;60.13;101233.49;1650451;87;20194;-79
2021/09/12 00:51:12;;;;;;;;;;;;;;;19.30;60.11;101227.05;1655240;85;20229;-80
2021/09/12 00:53:45;;;;;;;;;;;;;;;19.31;60.16;101231.53;1649097;85;20189;-79
2021/09/12 00:56:16;;;;;;;;;;;;;;;19.30;60.20;101232.67;1648506;87;20590;-74
2021/09/12 00:58:48;;;;;;;;;;;;;;;19.31;60.28;101229.27;1652918;87;20190;-75
2021/09/12 01:01:19;;;;;;;;;;;;;;;19.31;60.29;101233.49;1649876;87;20193;-78
2021/09/12 01:03:52;;;;;;;;;;;;;;;19.32;60.45;101238.02;1647458;87;20182;-74
2021/09/12 01:06:24;;;;;;;;;;;;;;;19.32;60.50;101238.02;1631487;87;20193;-78
2021/09/12 01:08:56;;;;;;;;;;;;;;;19.31;60.58;101237.72;1647616;87;20194;-77
2021/09/12 01:11:27;;;;;;;;;;;;;;;19.31;60.74;101240.53;1647612;87;20198;-80
2021/09/12 01:13:58;;;;;;;;;;;;;;;19.30;60.88;101241.13;1647507;87;20200;-77
2021/09/12 01:16:30;;;;;;;;;;;;;;;19.27;61.09;101242.30;1647513;87;20277;-76
2021/09/12 01:19:02;;;;;;;;;;;;;;;19.25;61.25;101235.56;1647390;87;20194;-76
2021/09/12 01:21:34;;;;;;;;;;;;;;;19.25;61.95;101235.56;1647602;87;20237;-76
2021/09/12 01:24:10;;;;;;;;;;;;;;;19.24;62.20;101241.49;1647625;87;20543;-78
2021/09/12 01:26:42;;;;;;;;;;;;;;;19.22;62.38;101238.16;1647598;87;20225;-75
2021/09/12 01:29:16;;;;;;;;;;;;;;;19.24;62.28;101238.67;1647663;87;20224;-80
2021/09/12 01:31:49;;;;;;;;;;;;;;;19.25;62.12;101234.16;1655213;87;20189;-79
2021/09/12 01:34:20;;;;;;;;;;;;;;;19.27;62.06;101240.90;1655311;87;20747;-79
2021/09/12 01:36:52;;;;;;;;;;;;;;;19.26;61.96;101249.09;1655246;87;20235;-80
2021/09/12 01:39:25;;;;;;;;;;;;;;;19.26;61.98;101246.27;1671374;85;20180;-78
2021/09/12 01:41:57;;;;;;;;;;;;;;;19.24;61.88;101245.72;1670643;86;20199;-79
2021/09/12 01:44:30;;;;;;;;;;;;;;;19.23;61.81;101248.27;1670500;86;20569;-78
2021/09/12 01:47:01;;;;;;;;;;;;;;;19.22;61.46;101252.23;1670661;86;20274;-81
2021/09/12 01:49:33;;;;;;;;;;;;;;;19.20;61.19;101255.91;1670603;86;20620;-76
2021/09/12 01:52:05;;;;;;;;;;;;;;;19.19;60.78;101258.45;1670582;86;20223;-77
2021/09/12 01:54:36;;;;;;;;;;;;;;;19.17;60.35;101247.49;1670681;86;20552;-76
2021/09/12 01:57:08;;;;;;;;;;;;;;;19.17;60.25;101245.23;1670670;86;20195;-74
2021/09/12 01:59:40;;;;;;;;;;;;;;;19.14;60.22;101252.89;1704589;82;20225;-77
2021/09/12 02:02:12;;;;;;;;;;;;;;;19.11;60.25;101260.52;1706220;82;20219;-75
2021/09/12 02:04:44;;;;;;;;;;;;;;;19.09;59.81;101252.96;1702435;82;20261;-78
2021/09/12 02:07:15;;;;;;;;;;;;;;;19.07;59.29;101247.63;1678946;85;20190;-78
2021/09/12 02:09:48;;;;;;;;;;;;;;;19.04;59.08;101258.66;1668128;85;20290;-78
2021/09/12 02:12:20;;;;;;;;;;;;;;;19.02;58.86;101254.73;1682324;84;20194;-77
2021/09/12 02:14:53;;;;;;;;;;;;;;;19.02;58.53;101249.69;1670371;85;20224;-73
2021/09/12 02:17:24;;;;;;;;;;;;;;;19.02;58.38;101256.72;1665737;85;20588;-73
2021/09/12 02:19:56;;;;;;;;;;;;;;;19.02;58.36;101252.50;1670885;85;20235;-73
2021/09/12 02:22:27;;;;;;;;;;;;;;;19.02;58.38;101255.31;1675378;85;20552;-73
2021/09/12 02:25:00;;;;;;;;;;;;;;;19.03;58.07;101252.77;1650399;86;20231;-74
2021/09/12 02:27:34;;;;;;;;;;;;;;;19.02;57.70;101244.05;1678275;85;20475;-74
2021/09/12 02:30:06;;;;;;;;;;;;;;;19.02;57.56;101245.47;1695212;83;20216;-76
2021/09/12 02:32:39;;;;;;;;;;;;;;;19.02;57.53;101242.65;1706122;83;20181;-75
2021/09/12 02:35:12;;;;;;;;;;;;;;;19.01;57.37;101243.80;1719281;83;20263;-73
2021/09/12 02:37:44;;;;;;;;;;;;;;;19.01;57.41;101249.42;1719234;83;20278;-76
2021/09/12 02:40:15;;;;;;;;;;;;;;;19.00;57.30;101249.12;1718958;82;20253;-73
2021/09/12 02:42:47;;;;;;;;;;;;;;;19.00;57.22;101251.95;1718818;83;20226;-73
2021/09/12 02:45:19;;;;;;;;;;;;;;;19.01;57.21;101246.61;1718806;82;20250;-75
2021/09/12 02:47:51;;;;;;;;;;;;;;;18.99;57.26;101247.45;1718516;83;20297;-76
2021/09/12 02:50:23;;;;;;;;;;;;;;;18.98;57.21;101250.86;1718674;82;20195;-75
2021/09/12 02:52:55;;;;;;;;;;;;;;;18.98;57.15;101255.09;1718650;82;20640;-75
2021/09/12 02:55:28;;;;;;;;;;;;;;;18.97;57.23;101255.38;1718514;83;20261;-75
2021/09/12 02:57:59;;;;;;;;;;;;;;;18.97;56.99;101259.60;1718917;83;20178;-77
2021/09/12 03:00:31;;;;;;;;;;;;;;;18.95;57.21;101257.67;1717789;82;20186;-75
2021/09/12 03:03:03;;;;;;;;;;;;;;;18.94;57.29;101268.64;1715557;84;20548;-77
2021/09/12 03:05:35;;;;;;;;;;;;;;;18.92;57.15;101265.30;1715833;82;20217;-74
2021/09/12 03:08:08;;;;;;;;;;;;;;;18.89;57.08;101265.91;1715594;83;20262;-74
2021/09/12 03:10:39;;;;;;;;;;;;;;;18.87;57.15;101273.80;1715599;82;20186;-79
2021/09/12 03:13:11;;;;;;;;;;;;;;;18.83;57.29;101258.09;1715675;83;20211;-74
2021/09/12 03:15:43;;;;;;;;;;;;;;;18.78;57.48;101258.73;1715642;84;20214;-75
2021/09/12 03:18:14;;;;;;;;;;;;;;;18.74;57.75;101273.13;1715733;82;20223;-74
2021/09/12 03:20:47;;;;;;;;;;;;;;;18.71;57.98;101265.30;1715643;82;20563;-75
2021/09/12 03:23:20;;;;;;;;;;;;;;;18.68;58.09;101273.77;1715614;84;20179;-73
2021/09/12 03:25:54;;;;;;;;;;;;;;;18.65;58.27;101269.31;1703824;84;20237;-76
2021/09/12 03:28:31;;;;;;;;;;;;;;;18.63;58.40;101270.16;1715669;84;20189;-75
2021/09/12 03:31:03;;;;;;;;;;;;;;;18.59;58.53;101271.33;1712391;81;20189;-78
2021/09/12 03:33:34;;;;;;;;;;;;;;;18.53;58.63;101273.94;1730442;81;20523;-73
2021/09/12 03:36:06;;;;;;;;;;;;;;;18.51;58.78;101264.97;1715790;84;20239;-75
2021/09/12 03:38:38;;;;;;;;;;;;;;;18.49;58.87;101268.66;1715858;83;20219;-74
2021/09/12 03:41:09;;;;;;;;;;;;;;;18.49;58.98;101275.69;1711765;84;20270;-75
2021/09/12 03:43:42;;;;;;;;;;;;;;;18.47;59.10;101277.94;1665465;82;20189;-78
2021/09/12 03:46:13;;;;;;;;;;;;;;;18.47;59.13;101274.31;1676130;84;20206;-75
2021/09/12 03:48:45;;;;;;;;;;;;;;;18.48;59.14;101281.61;1675825;85;20226;-76
2021/09/12 03:51:17;;;;;;;;;;;;;;;18.48;59.19;101284.42;1676540;86;20191;-79
2021/09/12 03:53:48;;;;;;;;;;;;;;;18.48;59.22;101289.45;1676484;86;20231;-76
2021/09/12 03:56:20;;;;;;;;;;;;;;;18.48;59.33;101288.64;1676436;86;20207;-75
2021/09/12 03:58:52;;;;;;;;;;;;;;;18.49;59.37;101291.72;1676436;86;20198;-77
2021/09/12 04:01:25;;;;;;;;;;;;;;;18.49;59.40;101284.13;1676397;86;20655;-74
2021/09/12 04:03:57;;;;;;;;;;;;;;;18.51;59.38;101289.44;1676611;86;20206;-76
2021/09/12 04:06:28;;;;;;;;;;;;;;;18.51;59.36;101286.62;1676298;84;20191;-75
2021/09/12 04:09:00;;;;;;;;;;;;;;;18.54;59.28;101285.45;1675436;86;20203;-76
2021/09/12 04:11:34;;;;;;;;;;;;;;;18.55;59.41;101281.53;1675026;84;20231;-75
2021/09/12 04:14:12;;;;;;;;;;;;;;;18.58;59.39;101285.69;1675733;85;20235;-75
2021/09/12 04:16:44;;;;;;;;;;;;;;;18.60;59.36;101282.85;1680620;86;20251;-78
2021/09/12 04:19:17;;;;;;;;;;;;;;;18.64;59.23;101289.56;1677637;84;20231;-79
2021/09/12 04:21:49;;;;;;;;;;;;;;;18.68;59.06;101287.84;1674999;86;20231;-78
2021/09/12 04:24:21;;;;;;;;;;;;;;;18.72;59.00;101288.90;1675039;86;20679;-75
2021/09/12 04:26:52;;;;;;;;;;;;;;;18.76;59.07;101288.58;1675272;84;20528;-74
2021/09/12 04:29:25;;;;;;;;;;;;;;;18.81;58.99;101288.52;1676187;86;20190;-77
2021/09/12 04:31:57;;;;;;;;;;;;;;;18.87;59.00;101289.28;1675915;86;20235;-81
2021/09/12 04:34:29;;;;;;;;;;;;;;;18.91;59.02;101287.55;1675215;86;20206;-81
2021/09/12 04:37:03;;;;;;;;;;;;;;;18.94;58.97;101282.16;1675152;86;20230;-78
2021/09/12 04:39:35;;;;;;;;;;;;;;;19.00;58.98;101282.91;1675307;86;20226;-78
2021/09/12 04:42:07;;;;;;;;;;;;;;;19.04;58.88;101274.99;1675129;86;20229;-77
2021/09/12 04:44:41;;;;;;;;;;;;;;;19.11;58.81;101278.83;1676009;83;20198;-75
2021/09/12 04:47:12;;;;;;;;;;;;;;;19.18;58.62;101279.28;1674909;86;20259;-75
2021/09/12 04:49:44;;;;;;;;;;;;;;;19.26;58.55;101281.48;1675938;86;20234;-77
2021/09/12 04:52:16;;;;;;;;;;;;;;;19.35;58.47;101277.67;1676542;86;20225;-75
2021/09/12 04:54:48;;;;;;;;;;;;;;;19.45;58.19;101281.73;1676632;84;20242;-75
2021/09/12 04:57:19;;;;;;;;;;;;;;;19.55;57.72;101281.58;1676672;84;20257;-76
2021/09/12 04:59:54;;;;;;;;;;;;;;;19.66;57.54;101286.48;1676545;86;20575;-78
2021/09/12 05:02:25;;;;;;;;;;;;;;;19.80;57.25;101273.30;1676689;84;20246;-76
2021/09/12 05:04:57;;;;;;;;;;;;;;;20.03;56.99;101279.36;1676549;86;20274;-78
2021/09/12 05:07:31;;;;;;;;;;;;;;;20.30;56.16;101283.12;1676491;84;20552;-79
2021/09/12 05:10:04;;;;;;;;;;;;;;;20.64;55.39;101277.95;1676431;84;20358;-81
2021/09/12 05:12:38;;;;;;;;;;;;;;;20.98;54.82;101274.13;1678667;84;20587;-82
2021/09/12 05:15:10;;;;;;;;;;;;;;;21.29;54.56;101270.07;1675868;86;20190;-77
2021/09/12 05:17:42;;;;;;;;;;;;;;;21.59;54.54;101268.76;1674981;85;20198;-79
2021/09/12 05:20:15;;;;;;;;;;;;;;;21.87;53.81;101270.92;1675705;85;20214;-78
2021/09/12 05:22:46;;;;;;;;;;;;;;;22.05;52.99;101273.57;1675692;84;20353;-77
2021/09/12 05:25:18;;;;;;;;;;;;;;;22.25;52.48;101267.37;1676445;86;20202;-74
2021/09/12 05:27:51;;;;;;;;;;;;;;;22.51;52.55;101270.38;1676479;85;20207;-80
2021/09/12 05:30:24;;;;;;;;;;;;;;;22.86;51.65;101276.45;1676459;84;20198;-76
2021/09/12 05:32:55;;;;;;;;;;;;;;;23.18;50.08;101272.66;1676427;86;20645;-78
2021/09/12 05:35:28;;;;;;;;;;;;;;;23.53;48.91;101270.09;1676395;84;20231;-77
2021/09/12 05:38:01;;;;;;;;;;;;;;;23.89;48.22;101271.23;1676450;86;20551;-74
2021/09/12 05:40:36;;;;;;;;;;;;;;;24.19;46.91;101271.61;1676384;84;20258;-77
2021/09/12 05:43:09;;;;;;;;;;;;;;;24.50;46.59;101270.77;1675601;84;20199;-76
2021/09/12 05:45:43;;;;;;;;;;;;;;;24.75;45.44;101267.03;1674826;85;20186;-75
2021/09/12 05:48:14;;;;;;;;;;;;;;;24.98;44.54;101270.66;1676394;86;20202;-81
2021/09/12 05:50:47;;;;;;;;;;;;;;;25.18;43.79;101271.89;1676377;85;20190;-79
2021/09/12 05:53:20;;;;;;;;;;;;;;;25.38;43.93;101265.42;1676437;86;20214;-75
2021/09/12 05:55:52;;;;;;;;;;;;;;;25.58;43.35;101266.87;1677470;82;20567;-79
2021/09/12 05:58:23;;;;;;;;;;;;;;;25.76;42.90;101268.97;1709482;84;20191;-78
2021/09/12 06:00:54;;;;;;;;;;;;;;;25.97;42.53;101269.22;1707503;83;20216;-77
2021/09/12 06:03:26;;;;;;;;;;;;;;;26.17;42.83;101267.53;1699273;83;20227;-80
2021/09/12 06:05:58;;;;;;;;;;;;;;;26.27;41.08;101267.91;1700320;84;20199;-74
2021/09/12 06:08:30;;;;;;;;;;;;;;;26.33;40.86;101260.80;1709753;84;20553;-74
2021/09/12 06:11:02;;;;;;;;;;;;;;;26.43;41.38;101262.38;1709252;84;20262;-74
2021/09/12 06:13:37;;;;;;;;;;;;;;;26.57;41.44;101267.20;1719760;83;20300;-73
2021/09/12 06:16:10;;;;;;;;;;;;;;;26.72;40.11;101270.78;1737636;82;20253;-74
2021/09/12 06:18:42;;;;;;;;;;;;;;;26.82;40.39;101266.86;1737580;81;20218;-75
2021/09/12 06:21:14;;;;;;;;;;;;;;;26.94;41.04;101265.44;1713907;82;20195;-75
2021/09/12 06:23:46;;;;;;;;;;;;;;;27.02;40.31;101260.23;1709761;84;20549;-76
2021/09/12 06:26:21;;;;;;;;;;;;;;;27.08;40.28;101262.48;1705068;83;20546;-80
2021/09/12 06:28:54;;;;;;;;;;;;;;;27.17;40.39;101265.82;1711916;83;20227;-81
2021/09/12 06:31:27;;;;;;;;;;;;;;;27.24;40.58;101267.51;1718137;83;20287;-81
2021/09/12 06:33:58;;;;;;;;;;;;;;;27.20;40.40;101260.84;1704126;84;20386;-78
2021/09/12 06:36:31;;;;;;;;;;;;;;;27.23;39.65;101268.67;1704107;83;20264;-76
2021/09/12 06:39:03;;;;;;;;;;;;;;;27.25;39.90;101272.02;1702977;84;20228;-78
2021/09/12 06:41:37;;;;;;;;;;;;;;;27.18;39.80;101268.94;1709709;83;20188;-80
2021/09/12 06:44:10;;;;;;;;;;;;;;;27.15;39.70;101269.02;1710673;84;20199;-80
2021/09/12 06:46:41;;;;;;;;;;;;;;;27.16;40.40;101274.15;1712458;84;20228;-82
2021/09/12 06:49:13;;;;;;;;;;;;;;;27.23;40.37;101274.37;1708277;84;20228;-79
2021/09/12 06:51:46;;;;;;;;;;;;;;;27.25;40.46;101268.55;1709611;84;20557;-77
2021/09/12 06:54:18;;;;;;;;;;;;;;;27.33;39.69;101280.45;1709072;83;20557;-79
2021/09/12 06:56:51;;;;;;;;;;;;;;;27.36;39.49;101278.30;1721160;81;20272;-79
2021/09/12 06:59:23;;;;;;;;;;;;;;;27.28;39.32;101280.08;1717806;83;20207;-79
2021/09/12 07:01:55;;;;;;;;;;;;;;;27.19;39.58;101271.41;1719710;81;20368;-77
2021/09/12 07:04:27;;;;;;;;;;;;;;;27.15;40.09;101267.59;1705006;84;20191;-79
2021/09/12 07:06:59;;;;;;;;;;;;;;;27.08;40.21;101272.45;1701448;83;20282;-81
2021/09/12 07:09:30;;;;;;;;;;;;;;;26.98;40.64;101274.34;1705995;83;20247;-80
2021/09/12 07:12:03;;;;;;;;;;;;;;;26.95;41.47;101275.66;1710080;83;20236;-79
2021/09/12 07:14:37;;;;;;;;;;;;;;;26.90;40.57;101280.78;1702819;83;20299;-80
2021/09/12 07:17:08;;;;;;;;;;;;;;;26.82;40.81;101284.58;1690783;83;20547;-82
2021/09/12 07:19:41;;;;;;;;;;;;;;;26.79;41.06;101283.85;1681419;84;20263;-80
2021/09/12 07:22:13;;;;;;;;;;;;;;;26.82;41.80;101283.16;1697896;84;20223;-79
2021/09/12 07:24:45;;;;;;;;;;;;;;;26.89;41.25;101277.08;1695613;84;20188;-76
2021/09/12 07:27:17;;;;;;;;;;;;;;;26.94;40.55;101285.41;1693945;82;20263;-77
2021/09/12 07:29:50;;;;;;;;;;;;;;;26.87;39.86;101284.36;1680835;84;20314;-77
2021/09/12 07:32:22;;;;;;;;;;;;;;;26.82;40.33;101278.88;1697627;82;20190;-78
2021/09/12 07:34:56;;;;;;;;;;;;;;;26.74;40.41;101279.22;1690704;84;20286;-76
2021/09/12 07:37:27;;;;;;;;;;;;;;;26.69;40.50;101281.48;1686105;84;20266;-80
2021/09/12 07:40:00;;;;;;;;;;;;;;;26.64;40.13;101281.09;1696552;84;20271;-82
2021/09/12 07:42:40;;;;;;;;;;;;;;;26.60;40.70;101279.31;1697068;84;20629;-82
2021/09/12 07:45:11;;;;;;;;;;;;;;;26.59;41.45;101277.65;1696831;84;20215;-79
2021/09/12 07:47:43;;;;;;;;;;;;;;;26.62;41.96;101282.62;1599112;88;20289;-82
2021/09/12 07:50:16;;;;;;;;;;;;;;;26.67;40.59;101280.98;1601153;89;20258;-81
2021/09/12 07:52:48;;;;;;;;;;;;;;;26.73;41.01;101277.56;1602315;89;20186;-80
2021/09/12 07:55:21;;;;;;;;;;;;;;;26.78;41.35;101273.64;1603302;89;20249;-78
2021/09/12 07:57:53;;;;;;;;;;;;;;;26.84;41.82;101269.37;1602355;89;20673;-78
2021/09/12 08:00:24;;;;;;;;;;;;;;;26.90;41.62;101277.92;1599213;89;20237;-79
2021/09/12 08:02:56;;;;;;;;;;;;;;;26.91;40.38;101269.60;1600267;88;20244;-79
2021/09/12 08:05:32;;;;;;;;;;;;;;;26.87;39.94;101276.61;1602256;88;20194;-81
2021/09/12 08:08:03;;;;;;;;;;;;;;;26.89;40.30;101259.16;1599351;89;20243;-81
2021/09/12 08:10:36;;;;;;;;;;;;;;;26.91;40.85;101266.75;1601796;89;20469;-78
2021/09/12 08:13:09;;;;;;;;;;;;;;;26.95;40.75;101259.97;1664996;84;20552;-78
2021/09/12 08:15:42;;;;;;;;;;;;;;;26.98;40.90;101261.28;1690096;84;20353;-83
2021/09/12 08:18:17;;;;;;;;;;;;;;;26.98;41.00;101257.00;1685154;83;20235;-80
2021/09/12 08:20:49;;;;;;;;;;;;;;;26.98;41.18;101257.00;1683084;84;20298;-74
2021/09/12 08:23:20;;;;;;;;;;;;;;;26.94;40.67;101261.16;1680936;84;20191;-79
2021/09/12 08:25:52;;;;;;;;;;;;;;;26.84;40.02;101253.69;1681247;84;20315;-78
2021/09/12 08:28:24;;;;;;;;;;;;;;;26.79;40.80;101262.47;1685553;83;21065;-80
2021/09/12 08:30:56;;;;;;;;;;;;;;;26.80;41.50;101254.15;1711697;81;20190;-79
2021/09/12 08:33:28;;;;;;;;;;;;;;;26.82;41.31;101254.64;1715790;82;20268;-83
2021/09/12 08:35:59;;;;;;;;;;;;;;;26.84;41.09;101249.41;1702428;83;20208;-79
2021/09/12 08:38:33;;;;;;;;;;;;;;;26.86;41.50;101252.14;1705301;84;20622;-77
2021/09/12 08:41:09;;;;;;;;;;;;;;;26.88;41.08;101251.80;1704762;83;20321;-78
2021/09/12 08:43:43;;;;;;;;;;;;;;;26.86;39.98;101253.57;1715537;83;20597;-76
2021/09/12 08:46:15;;;;;;;;;;;;;;;26.81;39.66;101250.95;1712187;82;20279;-79
2021/09/12 08:48:47;;;;;;;;;;;;;;;26.79;40.04;101245.36;1705068;83;20599;-77
2021/09/12 08:51:19;;;;;;;;;;;;;;;26.80;39.47;101248.44;1710339;83;20256;-76
2021/09/12 08:53:51;;;;;;;;;;;;;;;26.76;39.62;101238.34;1713299;82;20204;-78
2021/09/12 08:56:22;;;;;;;;;;;;;;;26.76;40.07;101241.81;1704803;84;20231;-77
2021/09/12 08:58:55;;;;;;;;;;;;;;;26.78;39.05;101241.70;1691260;83;20203;-75
2021/09/12 09:01:33;;;;;;;;;;;;;;;26.79;39.41;101245.36;1709272;83;20268;-75
2021/09/12 09:04:06;;;;;;;;;;;;;;;26.81;39.28;101238.12;1709829;82;20351;-74
2021/09/12 09:06:38;;;;;;;;;;;;;;;26.86;39.21;101235.61;1710492;83;20724;-72
2021/09/12 09:09:12;;;;;;;;;;;;;;;26.92;39.43;101232.77;1719866;82;20266;-77
2021/09/12 09:11:44;;;;;;;;;;;;;;;26.94;39.01;101238.97;1718753;82;20199;-76
2021/09/12 09:14:18;;;;;;;;;;;;;;;26.98;39.06;101230.76;1715368;82;20215;-75
2021/09/12 09:16:52;;;;;;;;;;;;;;;27.03;38.87;101232.53;1710980;83;20270;-75
2021/09/12 09:19:25;;;;;;;;;;;;;;;27.08;38.54;101224.58;1705845;83;20557;-75
2021/09/12 09:21:57;;;;;;;;;;;;;;;27.13;38.84;101224.92;1701939;83;20298;-78
2021/09/12 09:24:33;;;;;;;;;;;;;;;27.17;39.05;101223.87;1686214;83;20206;-78
2021/09/12 09:27:07;;;;;;;;;;;;;;;27.21;37.49;101223.98;1709013;83;20697;-76
2021/09/12 09:29:39;;;;;;;;;;;;;;;27.25;37.03;101222.09;1709080;83;20310;-78
2021/09/12 09:32:13;;;;;;;;;;;;;;;27.31;36.97;101213.52;1714892;82;20257;-79
2021/09/12 09:34:45;;;;;;;;;;;;;;;27.36;36.75;101216.13;1716482;82;20198;-80
2021/09/12 09:37:18;;;;;;;;;;;;;;;27.39;35.71;101212.77;1708610;83;20340;-75
2021/09/12 09:39:53;;;;;;;;;;;;;;;27.44;34.81;101206.81;1710113;82;20564;-75
2021/09/12 09:42:35;;;;;;;;;;;;;;;27.51;34.75;101210.50;1707683;83;20648;-79
2021/09/12 09:45:13;;;;;;;;;;;;;;;27.56;35.35;101205.35;1706128;83;20310;-75
2021/09/12 09:47:46;;;;;;;;;;;;;;;27.63;35.23;101201.89;1703311;83;20222;-78
2021/09/12 09:50:24;;;;;;;;;;;;;;;27.64;35.66;101201.50;1713612;83;20577;-74
2021/09/12 09:52:56;;;;;;;;;;;;;;;27.66;35.77;101198.30;1716174;83;20268;-76
2021/09/12 09:55:28;;;;;;;;;;;;;;;27.68;33.71;101201.61;1711204;81;20238;-77
2021/09/12 09:58:00;;;;;;;;;;;;;;;27.71;33.29;101200.28;1719435;82;20267;-76
2021/09/12 10:00:32;;;;;;;;;;;;;;;27.76;33.29;101197.80;1719289;82;20277;-76
2021/09/12 10:03:05;;;;;;;;;;;;;;;27.76;32.82;101200.64;1735284;82;20190;-80
2021/09/12 10:05:37;;;;;;;;;;;;;;;27.77;32.82;101198.05;1704639;83;20564;-75
2021/09/12 10:08:09;;;;;;;;;;;;;;;27.76;32.34;101198.60;1723045;83;20254;-77
2021/09/12 10:13:37;;;;;;;;;;;;;;;27.80;32.99;101188.74;1691904;85;20187;-75
2021/09/12 10:16:09;;;;;;;;;;;;;;;27.79;32.98;101197.92;1693325;85;20302;-75
2021/09/12 10:18:42;;;;;;;;;;;;;;;27.77;33.31;101190.91;1683429;85;20304;-76
2021/09/12 10:21:26;;;;;;;;;;;;;;;27.75;34.86;101181.24;1677225;83;20305;-73
2021/09/12 10:23:59;;;;;;;;;;;;;;;27.67;34.33;101185.67;1680112;85;20347;-73
2021/09/12 10:26:35;;;;;;;;;;;;;;;27.64;34.39;101181.52;1679789;85;20249;-75
2021/09/12 10:29:27;;;;;;;;;;;;;;;27.67;34.05;101183.66;1680939;85;20261;-75
2021/09/12 10:32:00;;;;;;;;;;;;;;;27.69;34.00;101179.03;1687250;83;20210;-74
2021/09/12 10:34:33;;;;;;;;;;;;;;;27.73;34.24;101181.37;1674895;84;20190;-73
2021/09/12 10:37:08;;;;;;;;;;;;;;;27.76;33.74;101182.89;1688348;84;20265;-72
2021/09/12 10:39:44;;;;;;;;;;;;;;;27.78;33.43;101169.14;1683636;85;20312;-73
2021/09/12 10:42:17;;;;;;;;;;;;;;;27.78;33.67;101164.02;1651079;86;20559;-72
2021/09/12 10:45:01;;;;;;;;;;;;;;;27.76;33.70;101159.23;1647385;87;20375;-73
2021/09/12 10:47:33;;;;;;;;;;;;;;;27.78;33.52;101163.43;1622063;88;20291;-72
2021/09/12 10:50:08;;;;;;;;;;;;;;;27.82;32.94;101165.77;1657484;86;20254;-76
2021/09/12 10:52:46;;;;;;;;;;;;;;;27.84;32.83;101164.83;1656720;86;20290;-75
2021/09/12 10:55:18;;;;;;;;;;;;;;;27.84;33.17;101165.41;1656148;86;20229;-78
2021/09/12 10:57:50;;;;;;;;;;;;;;;27.85;33.43;101170.77;1649035;86;20345;-75
2021/09/12 11:00:26;;;;;;;;;;;;;;;27.90;32.86;101165.37;1646437;86;20260;-79
2021/09/12 11:03:01;;;;;;;;;;;;;;;27.93;32.54;101167.48;1651404;86;20259;-78
2021/09/12 11:05:34;;;;;;;;;;;;;;;27.90;32.49;101166.80;1653310;86;20178;-79
2021/09/12 11:08:07;;;;;;;;;;;;;;;27.84;32.86;101163.40;1643714;86;20266;-81
2021/09/12 11:10:40;;;;;;;;;;;;;;;27.81;32.35;101152.69;1653711;86;20254;-73
2021/09/12 11:13:13;;;;;;;;;;;;;;;27.72;32.80;101158.30;1644801;85;20197;-73
2021/09/12 11:15:45;;;;;;;;;;;;;;;27.67;32.41;101148.56;1635772;87;20230;-78
2021/09/12 11:18:17;;;;;;;;;;;;;;;27.69;32.54;101143.34;1634676;87;20231;-79
2021/09/12 11:20:49;;;;;;;;;;;;;;;27.68;32.64;101143.08;1636589;87;20222;-74
2021/09/12 11:23:32;;;;;;;;;;;;;;;27.68;32.59;101142.49;1638347;87;20229;-75
2021/09/12 11:26:04;;;;;;;;;;;;;;;27.70;32.56;101136.43;1649129;86;21033;-75
2021/09/12 11:28:36;;;;;;;;;;;;;;;27.73;32.48;101133.67;1644341;85;20193;-77
2021/09/12 11:31:09;;;;;;;;;;;;;;;27.75;32.21;101131.89;1639225;86;20278;-73
2021/09/12 11:33:51;;;;;;;;;;;;;;;27.72;32.91;101125.46;1639256;87;20300;-76
2021/09/12 11:36:24;;;;;;;;;;;;;;;27.69;32.29;101134.16;1640874;86;20226;-82
2021/09/12 11:38:58;;;;;;;;;;;;;;;27.70;32.00;101127.25;1643857;86;20253;-81
2021/09/12 11:41:31;;;;;;;;;;;;;;;27.75;31.75;101128.41;1642796;86;20237;-84
2021/09/12 11:44:04;;;;;;;;;;;;;;;27.78;31.65;101129.16;1642554;86;20265;-80
2021/09/12 11:46:46;;;;;;;;;;;;;;;27.79;31.78;101123.68;1645009;86;20192;-77
2021/09/12 11:49:18;;;;;;;;;;;;;;;27.82;31.92;101124.36;1648879;86;20281;-78
2021/09/12 11:51:50;;;;;;;;;;;;;;;27.87;31.59;101131.23;1645219;86;20240;-79
2021/09/12 11:54:24;;;;;;;;;;;;;;;27.89;31.75;101118.03;1649935;85;20227;-77
2021/09/12 11:57:00;;;;;;;;;;;;;;;27.91;31.63;101124.19;1647347;86;20223;-78
2021/09/12 11:59:34;;;;;;;;;;;;;;;27.91;31.68;101119.91;1644248;85;20232;-81
2021/09/12 12:02:07;;;;;;;;;;;;;;;27.91;31.95;101115.63;1649005;86;20247;-79
2021/09/12 12:04:41;;;;;;;;;;;;;;;27.90;32.27;101116.24;1654657;86;20198;-78
2021/09/12 12:07:17;;;;;;;;;;;;;;;27.88;32.83;101118.61;1642780;86;20233;-79
2021/09/12 12:09:49;;;;;;;;;;;;;;;27.85;32.97;101115.08;1650102;85;20201;-76
2021/09/12 12:12:21;;;;;;;;;;;;;;;27.76;33.50;101112.13;1642184;87;20273;-78
2021/09/12 12:14:56;;;;;;;;;;;;;;;27.71;31.92;101103.82;1649129;86;20584;-76
2021/09/12 12:17:29;;;;;;;;;;;;;;;27.72;32.47;101103.46;1649286;87;20274;-78
2021/09/12 12:20:02;;;;;;;;;;;;;;;27.70;33.34;101110.11;1637959;87;20341;-92
2021/09/12 12:22:36;;;;;;;;;;;;;;;27.59;33.19;101113.88;1649622;87;20577;-78
2021/09/12 12:25:09;;;;;;;;;;;;;;;27.40;33.94;101110.26;1643821;86;20261;-81
2021/09/12 12:27:42;;;;;;;;;;;;;;;27.28;34.20;101114.58;1643789;87;20226;-79
2021/09/12 12:30:14;;;;;;;;;;;;;;;27.20;33.92;101115.34;1645661;86;20543;-75
2021/09/12 12:32:46;;;;;;;;;;;;;;;27.13;33.84;101109.39;1628807;87;20216;-75
2021/09/12 12:35:19;;;;;;;;;;;;;;;27.07;33.44;101110.84;1649991;87;20233;-73
2021/09/12 12:37:50;;;;;;;;;;;;;;;27.00;33.66;101110.01;1645728;85;20223;-74
2021/09/12 12:40:23;;;;;;;;;;;;;;;26.93;32.77;101112.64;1642188;87;20262;-77
2021/09/12 12:43:03;;;;;;;;;;;;;;;26.93;33.32;101108.95;1647646;86;20199;-77
2021/09/12 12:45:36;;;;;;;;;;;;;;;26.89;33.77;101105.18;1648670;86;20197;-79
2021/09/12 12:48:11;;;;;;;;;;;;;;;26.83;34.70;101099.48;1648375;87;20625;-76
2021/09/12 12:50:46;;;;;;;;;;;;;;;26.76;34.21;101098.66;1645930;87;20720;-79
2021/09/12 12:53:29;;;;;;;;;;;;;;;26.75;34.55;101103.31;1643828;87;20203;-78
2021/09/12 12:56:00;;;;;;;;;;;;;;;26.71;35.30;101105.20;1643780;87;20256;-76
2021/09/12 12:58:33;;;;;;;;;;;;;;;26.63;35.41;101096.20;1645785;87;20545;-76
2021/09/12 13:01:08;;;;;;;;;;;;;;;26.57;35.22;101109.84;1645208;86;20247;-73
2021/09/12 13:03:41;;;;;;;;;;;;;;;26.50;35.07;101103.88;1645160;87;20539;-81
2021/09/12 13:06:15;;;;;;;;;;;;;;;26.46;34.78;101104.96;1645229;86;20553;-81